Time;durP1;ratioP1;P1;durP2;ratioP2;P2;SDS_P1;SDS_P2;PMS_P1;PMS_P2;Temp;Humidity;BMP_temperature;BMP_pressure;BME280_temperature;BME280_humidity;BME280_pressure;Samples;Min_cycle;Max_cycle;Signal;HPM_P1;HPM_P2
2020/12/11 00:01:28;;;;;;;39.50;27.87;;;;;;;;;;6256259;23;20433;-92
2020/12/11 00:03:54;;;;;;;43.03;29.60;;;;;;;;;;6257542;23;20410;-92
2020/12/11 00:06:21;;;;;;;44.60;29.03;;;;;;;;;;6256473;23;20420;-92
2020/12/11 00:08:47;;;;;;;41.50;26.87;;;;;;;;;;6229338;23;20434;-92
2020/12/11 00:11:13;;;;;;;40.40;25.47;;;;;;;;;;6257479;23;20413;-93
2020/12/11 00:13:40;;;;;;;32.63;22.87;;;;;;;;;;6256181;23;20496;-94
2020/12/11 00:16:06;;;;;;;34.03;22.53;;;;;;;;;;6254893;23;20414;-93
2020/12/11 00:18:32;;;;;;;39.97;24.43;;;;;;;;;;6249940;23;20410;-92
2020/12/11 00:20:58;;;;;;;43.37;24.37;;;;;;;;;;6249199;23;20419;-93
2020/12/11 00:23:26;;;;;;;33.37;23.60;;;;;;;;;;6245442;23;20436;-92
2020/12/11 00:25:58;;;;;;;36.53;24.00;;;;;;;;;;6246804;23;20465;-92
2020/12/11 00:28:24;;;;;;;32.00;22.07;;;;;;;;;;6247734;23;20453;-92
2020/12/11 00:30:51;;;;;;;32.97;22.80;;;;;;;;;;6245980;23;20425;-92
2020/12/11 00:33:17;;;;;;;32.13;20.90;;;;;;;;;;6247771;23;20414;-92
2020/12/11 00:35:43;;;;;;;25.93;18.63;;;;;;;;;;6247787;23;20745;-92
2020/12/11 00:38:09;;;;;;;34.70;23.73;;;;;;;;;;6258287;23;20424;-92
2020/12/11 00:40:35;;;;;;;32.60;20.63;;;;;;;;;;6254329;23;20414;-92
2020/12/11 00:43:01;;;;;;;29.90;18.77;;;;;;;;;;6256548;23;20497;-93
2020/12/11 00:45:27;;;;;;;25.70;17.80;;;;;;;;;;6255232;23;20428;-92
2020/12/11 00:47:54;;;;;;;30.50;19.77;;;;;;;;;;6257328;23;20453;-92
2020/12/11 00:50:20;;;;;;;26.17;17.97;;;;;;;;;;6257433;23;20402;-92
2020/12/11 00:52:46;;;;;;;36.53;18.17;;;;;;;;;;6261258;23;20421;-93
2020/12/11 00:55:12;;;;;;;25.60;17.37;;;;;;;;;;6262167;23;20951;-93
2020/12/11 00:57:38;;;;;;;25.27;16.43;;;;;;;;;;6257268;23;20414;-93
2020/12/11 01:00:05;;;;;;;19.57;14.43;;;;;;;;;;6256852;23;20418;-94
2020/12/11 01:02:31;;;;;;;23.23;15.97;;;;;;;;;;6255961;23;20402;-93
2020/12/11 01:04:58;;;;;;;22.90;15.80;;;;;;;;;;6257001;23;20406;-93
2020/12/11 01:07:24;;;;;;;29.17;17.77;;;;;;;;;;6255836;23;20476;-94
2020/12/11 01:09:50;;;;;;;25.13;16.77;;;;;;;;;;6256656;23;20406;-93
2020/12/11 01:12:16;;;;;;;22.73;14.43;;;;;;;;;;6257202;23;20409;-94
2020/12/11 01:14:42;;;;;;;27.70;16.07;;;;;;;;;;6255661;23;20418;-94
2020/12/11 01:17:08;;;;;;;15.10;11.73;;;;;;;;;;6254089;23;20421;-93
2020/12/11 01:19:34;;;;;;;18.17;10.53;;;;;;;;;;6253264;23;20410;-93
2020/12/11 01:22:04;;;;;;;11.87;7.77;;;;;;;;;;6256870;23;20500;-95
2020/12/11 01:24:30;;;;;;;10.70;7.23;;;;;;;;;;6254647;23;20412;-93
2020/12/11 01:26:56;;;;;;;12.00;7.43;;;;;;;;;;6256771;23;20475;-94
2020/12/11 01:29:22;;;;;;;8.83;6.67;;;;;;;;;;6254937;23;20969;-94
2020/12/11 01:31:48;;;;;;;7.67;5.90;;;;;;;;;;6255172;23;20985;-93
2020/12/11 01:34:14;;;;;;;7.83;5.83;;;;;;;;;;6255203;23;20410;-93
2020/12/11 01:36:40;;;;;;;6.17;5.00;;;;;;;;;;6254980;23;20421;-93
2020/12/11 01:39:07;;;;;;;5.50;5.00;;;;;;;;;;6256948;23;20406;-92
2020/12/11 01:41:33;;;;;;;6.57;4.60;;;;;;;;;;6254387;23;20962;-93
2020/12/11 01:44:04;;;;;;;6.40;5.33;;;;;;;;;;6255445;23;20422;-93
2020/12/11 01:46:35;;;;;;;6.40;4.70;;;;;;;;;;6255201;23;20416;-94
2020/12/11 01:49:01;;;;;;;14.93;6.20;;;;;;;;;;6256800;23;20489;-94
2020/12/11 01:51:27;;;;;;;6.20;5.50;;;;;;;;;;6254662;23;20410;-94
2020/12/11 01:53:53;;;;;;;6.40;4.90;;;;;;;;;;6254366;23;20406;-95
2020/12/11 01:56:21;;;;;;;5.00;4.60;;;;;;;;;;6256537;23;20410;-95
2020/12/11 01:58:47;;;;;;;9.10;4.93;;;;;;;;;;6255473;23;20475;-95
2020/12/11 02:01:15;;;;;;;6.40;4.83;;;;;;;;;;6255604;23;20418;-94
2020/12/11 02:03:42;;;;;;;7.73;5.83;;;;;;;;;;6253886;23;20398;-95
2020/12/11 02:06:08;;;;;;;7.40;6.33;;;;;;;;;;6256478;23;20414;-94
2020/12/11 02:08:34;;;;;;;10.77;8.60;;;;;;;;;;6255315;23;20453;-94
2020/12/11 02:11:00;;;;;;;14.40;10.87;;;;;;;;;;6256744;23;20731;-94
2020/12/11 02:13:27;;;;;;;20.70;13.63;;;;;;;;;;6254798;23;20418;-95
2020/12/11 02:15:53;;;;;;;21.10;15.17;;;;;;;;;;6257087;23;20413;-94
2020/12/11 02:18:19;;;;;;;29.70;17.83;;;;;;;;;;6255976;23;20421;-94
2020/12/11 02:20:46;;;;;;;51.07;22.30;;;;;;;;;;6256148;23;20417;-95
2020/12/11 02:23:13;;;;;;;110.03;25.00;;;;;;;;;;6256189;23;20410;-95
2020/12/11 02:25:42;;;;;;;360.27;32.37;;;;;;;;;;6254715;23;20934;-94
2020/12/11 02:28:08;;;;;;;263.70;26.27;;;;;;;;;;6257231;23;20531;-95
2020/12/11 02:30:34;;;;;;;128.90;21.47;;;;;;;;;;6253365;23;20421;-93
2020/12/11 02:33:00;;;;;;;173.37;25.07;;;;;;;;;;6254284;23;20409;-94
2020/12/11 02:35:26;;;;;;;132.53;23.10;;;;;;;;;;6254337;23;20436;-93
2020/12/11 02:37:52;;;;;;;223.93;29.43;;;;;;;;;;6256332;23;20416;-94
2020/12/11 02:40:19;;;;;;;211.07;30.10;;;;;;;;;;6256871;23;20417;-93
2020/12/11 02:42:45;;;;;;;66.37;24.10;;;;;;;;;;6256074;23;20410;-93
2020/12/11 02:45:11;;;;;;;110.43;26.30;;;;;;;;;;6271433;23;20401;-93
2020/12/11 02:47:37;;;;;;;304.00;35.37;;;;;;;;;;6256766;23;20447;-95
2020/12/11 02:50:03;;;;;;;186.70;25.70;;;;;;;;;;6257666;23;20420;-94
2020/12/11 02:52:29;;;;;;;187.43;22.63;;;;;;;;;;6254616;23;20409;-92
2020/12/11 02:54:55;;;;;;;59.20;17.67;;;;;;;;;;6256570;23;20733;-93
2020/12/11 02:57:22;;;;;;;32.97;13.80;;;;;;;;;;6257090;23;20413;-93
2020/12/11 02:59:48;;;;;;;43.87;12.70;;;;;;;;;;6258083;23;20452;-94
2020/12/11 03:02:14;;;;;;;43.00;12.07;;;;;;;;;;6256765;23;20413;-93
2020/12/11 03:04:41;;;;;;;89.93;15.13;;;;;;;;;;6258305;23;20406;-94
2020/12/11 03:07:07;;;;;;;73.37;12.73;;;;;;;;;;6257810;23;20444;-94
2020/12/11 03:09:33;;;;;;;27.20;8.70;;;;;;;;;;6256126;23;20406;-92
2020/12/11 03:11:59;;;;;;;126.93;15.90;;;;;;;;;;6256261;23;20421;-92
2020/12/11 03:14:25;;;;;;;69.97;11.13;;;;;;;;;;6254822;23;20991;-92
2020/12/11 03:16:51;;;;;;;36.43;11.60;;;;;;;;;;6256653;23;20421;-92
2020/12/11 03:19:18;;;;;;;48.57;11.47;;;;;;;;;;6254609;23;20477;-93
2020/12/11 03:21:44;;;;;;;28.40;10.33;;;;;;;;;;6256277;23;20401;-92
2020/12/11 03:24:10;;;;;;;15.20;10.17;;;;;;;;;;6256441;23;20417;-91
2020/12/11 03:26:36;;;;;;;17.30;8.70;;;;;;;;;;6255621;23;20428;-91
2020/12/11 03:29:02;;;;;;;38.23;11.10;;;;;;;;;;6257755;23;20516;-92
2020/12/11 03:31:29;;;;;;;41.07;13.57;;;;;;;;;;6255758;23;20413;-92
2020/12/11 03:33:55;;;;;;;43.17;15.47;;;;;;;;;;6258068;23;20410;-92
2020/12/11 03:36:21;;;;;;;38.27;13.33;;;;;;;;;;6254862;23;20413;-92
2020/12/11 03:38:48;;;;;;;41.10;13.60;;;;;;;;;;6255564;23;20413;-93
2020/12/11 03:41:14;;;;;;;34.07;14.33;;;;;;;;;;6255554;23;20398;-93
2020/12/11 03:43:40;;;;;;;24.90;12.10;;;;;;;;;;6257208;23;20420;-93
2020/12/11 03:46:06;;;;;;;21.93;11.23;;;;;;;;;;6257660;23;20406;-94
2020/12/11 03:48:33;;;;;;;14.40;9.07;;;;;;;;;;6255754;23;20795;-93
2020/12/11 03:50:59;;;;;;;12.70;7.53;;;;;;;;;;6256985;23;20414;-94
2020/12/11 03:53:25;;;;;;;8.90;6.50;;;;;;;;;;6256481;23;20910;-93
2020/12/11 03:55:51;;;;;;;13.03;7.13;;;;;;;;;;6257712;23;20416;-94
2020/12/11 03:58:17;;;;;;;11.27;6.33;;;;;;;;;;6255585;23;20413;-93
2020/12/11 04:00:43;;;;;;;8.83;5.60;;;;;;;;;;6255908;23;20414;-94
2020/12/11 04:03:09;;;;;;;16.40;9.53;;;;;;;;;;6254763;23;20409;-94
2020/12/11 04:05:36;;;;;;;15.57;11.33;;;;;;;;;;6257467;23;20432;-93
2020/12/11 04:08:02;;;;;;;11.63;7.40;;;;;;;;;;6256750;23;20457;-93
2020/12/11 04:10:28;;;;;;;12.57;6.80;;;;;;;;;;6255989;23;20398;-94
2020/12/11 04:12:55;;;;;;;9.90;6.73;;;;;;;;;;6256733;23;20414;-93
2020/12/11 04:15:22;;;;;;;12.63;6.43;;;;;;;;;;6256395;23;20416;-94
2020/12/11 04:17:47;;;;;;;9.93;6.97;;;;;;;;;;6257714;23;20409;-94
2020/12/11 04:20:13;;;;;;;8.50;5.53;;;;;;;;;;6254960;23;20412;-93
2020/12/11 04:22:40;;;;;;;7.70;5.70;;;;;;;;;;6256803;23;20417;-94
2020/12/11 04:25:06;;;;;;;8.30;5.60;;;;;;;;;;6255866;23;20822;-93
2020/12/11 04:27:32;;;;;;;8.73;6.13;;;;;;;;;;6256755;23;20444;-93
2020/12/11 04:29:58;;;;;;;9.40;6.93;;;;;;;;;;6256821;23;20422;-94
2020/12/11 04:32:24;;;;;;;9.03;6.53;;;;;;;;;;6254917;23;20414;-94
2020/12/11 04:34:50;;;;;;;8.57;5.60;;;;;;;;;;6264338;23;20402;-94
2020/12/11 04:37:16;;;;;;;6.53;4.97;;;;;;;;;;6263908;22;20418;-94
2020/12/11 04:39:43;;;;;;;8.43;5.83;;;;;;;;;;6257583;23;20409;-93
2020/12/11 04:42:11;;;;;;;6.60;4.77;;;;;;;;;;6254758;23;20417;-93
2020/12/11 04:44:37;;;;;;;14.57;9.50;;;;;;;;;;6256961;23;20691;-94
2020/12/11 04:47:05;;;;;;;21.37;11.00;;;;;;;;;;6256519;23;20409;-96
2020/12/11 04:49:33;;;;;;;17.00;11.20;;;;;;;;;;6255262;23;20410;-96
2020/12/11 04:52:02;;;;;;;15.93;10.10;;;;;;;;;;6254786;23;20421;-93
2020/12/11 04:54:35;;;;;;;20.57;11.43;;;;;;;;;;6252970;23;20468;-94
2020/12/11 04:57:02;;;;;;;24.40;15.20;;;;;;;;;;6256452;23;20417;-92
2020/12/11 04:59:28;;;;;;;25.30;15.83;;;;;;;;;;6254900;23;20786;-92
2020/12/11 05:01:56;;;;;;;46.10;21.87;;;;;;;;;;6255011;23;20432;-93
2020/12/11 05:04:23;;;;;;;31.20;18.33;;;;;;;;;;6253654;23;20397;-93
2020/12/11 05:06:49;;;;;;;35.17;19.33;;;;;;;;;;6256030;23;20442;-95
2020/12/11 05:09:16;;;;;;;58.83;22.47;;;;;;;;;;6256923;23;20461;-95
2020/12/11 05:11:42;;;;;;;53.13;23.90;;;;;;;;;;6256140;23;20404;-95
2020/12/11 05:14:19;;;;;;;81.40;25.90;;;;;;;;;;6257815;23;20417;-93
2020/12/11 05:16:56;;;;;;;50.90;22.73;;;;;;;;;;6254670;23;20413;-93
2020/12/11 05:19:22;;;;;;;80.87;30.37;;;;;;;;;;6256179;23;20448;-94
2020/12/11 05:21:48;;;;;;;95.47;31.00;;;;;;;;;;6254095;22;20992;-95
2020/12/11 05:24:14;;;;;;;117.73;36.00;;;;;;;;;;6256145;23;20421;-93
2020/12/11 05:26:40;;;;;;;99.80;32.77;;;;;;;;;;6254254;23;20943;-93
2020/12/11 05:29:06;;;;;;;85.30;31.27;;;;;;;;;;6256632;23;20461;-93
2020/12/11 05:31:33;;;;;;;141.00;32.77;;;;;;;;;;6256372;23;20463;-92
2020/12/11 05:34:11;;;;;;;103.50;27.67;;;;;;;;;;6254106;23;20588;-93
2020/12/11 05:36:55;;;;;;;70.60;25.73;;;;;;;;;;6255069;23;20413;-93
2020/12/11 05:39:31;;;;;;;92.40;24.87;;;;;;;;;;6254071;23;20409;-94
2020/12/11 05:41:59;;;;;;;60.07;23.07;;;;;;;;;;6256959;23;20405;-94
2020/12/11 05:44:29;;;;;;;52.10;21.20;;;;;;;;;;6255541;23;20410;-94
2020/12/11 05:46:56;;;;;;;53.13;23.63;;;;;;;;;;6255669;23;20432;-93
2020/12/11 05:49:24;;;;;;;45.77;22.30;;;;;;;;;;6253817;23;20479;-93
2020/12/11 05:51:55;;;;;;;53.30;23.07;;;;;;;;;;6255840;23;20416;-94
2020/12/11 05:54:22;;;;;;;53.60;25.00;;;;;;;;;;6253991;23;20405;-93
2020/12/11 05:56:49;;;;;;;54.63;23.70;;;;;;;;;;6256262;23;20460;-93
2020/12/11 05:59:15;;;;;;;53.73;25.37;;;;;;;;;;6257007;23;20410;-93
2020/12/11 06:01:41;;;;;;;49.90;23.70;;;;;;;;;;6254704;23;20430;-93
2020/12/11 06:04:10;;;;;;;51.93;24.33;;;;;;;;;;6255961;23;20410;-94
2020/12/11 06:06:37;;;;;;;51.60;23.10;;;;;;;;;;6254776;23;20406;-93
2020/12/11 06:09:03;;;;;;;33.10;18.60;;;;;;;;;;6256343;23;20449;-94
2020/12/11 06:11:35;;;;;;;35.93;19.87;;;;;;;;;;6253751;23;20401;-94
2020/12/11 06:14:02;;;;;;;31.27;20.20;;;;;;;;;;6254168;23;20424;-94
2020/12/11 06:16:31;;;;;;;37.20;20.70;;;;;;;;;;6253799;23;20416;-94
2020/12/11 06:19:00;;;;;;;41.07;25.10;;;;;;;;;;6258106;23;20409;-95
2020/12/11 06:21:28;;;;;;;39.73;25.20;;;;;;;;;;6257861;23;20468;-95
2020/12/11 06:23:54;;;;;;;42.03;25.20;;;;;;;;;;6258215;23;20452;-95
2020/12/11 06:26:21;;;;;;;39.33;25.10;;;;;;;;;;6264236;23;20487;-96
2020/12/11 06:28:48;;;;;;;36.23;22.30;;;;;;;;;;6263381;23;20457;-96
2020/12/11 06:31:15;;;;;;;29.27;19.43;;;;;;;;;;6260155;23;20436;-96
2020/12/11 06:33:42;;;;;;;30.93;20.03;;;;;;;;;;6258185;23;20463;-96
2020/12/11 06:36:08;;;;;;;36.53;22.27;;;;;;;;;;6258402;23;20402;-95
2020/12/11 06:38:42;;;;;;;44.30;20.67;;;;;;;;;;6257319;23;20410;-96
2020/12/11 06:41:09;;;;;;;45.87;21.90;;;;;;;;;;6258120;23;20416;-95
2020/12/11 06:43:39;;;;;;;49.17;23.37;;;;;;;;;;6257340;23;20405;-96
2020/12/11 06:46:15;;;;;;;47.97;28.80;;;;;;;;;;6262740;23;20410;-96
2020/12/11 06:49:02;;;;;;;68.37;34.00;;;;;;;;;;6256003;23;20445;-96
2020/12/11 06:51:43;;;;;;;48.60;27.90;;;;;;;;;;6264662;23;20397;-96
2020/12/11 06:56:47;;;;;;;43.00;22.77;;;;;;;;;;6296320;22;20464;-96
2020/12/11 06:59:32;;;;;;;45.37;23.67;;;;;;;;;;6298724;22;20412;-96
2020/12/11 07:02:15;;;;;;;54.20;24.67;;;;;;;;;;6301262;22;20409;-96
2020/12/11 07:04:42;;;;;;;57.43;27.83;;;;;;;;;;6292960;22;20966;-96
2020/12/11 07:07:08;;;;;;;58.03;26.80;;;;;;;;;;6295857;22;20489;-96
2020/12/11 07:09:38;;;;;;;76.87;23.63;;;;;;;;;;6266360;22;20484;-96
2020/12/11 07:12:06;;;;;;;58.20;26.97;;;;;;;;;;6299569;22;20409;-96
2020/12/11 07:14:33;;;;;;;57.60;26.87;;;;;;;;;;6299997;22;20433;-96
2020/12/11 07:17:00;;;;;;;47.37;21.90;;;;;;;;;;6289281;22;20417;-96
2020/12/11 07:19:26;;;;;;;56.53;25.30;;;;;;;;;;6285612;22;20469;-95
2020/12/11 07:21:52;;;;;;;78.40;25.40;;;;;;;;;;6285280;22;20412;-95
2020/12/11 07:24:18;;;;;;;66.03;26.43;;;;;;;;;;6286431;22;20401;-95
2020/12/11 07:26:44;;;;;;;79.47;28.50;;;;;;;;;;6287554;22;20435;-95
2020/12/11 07:29:13;;;;;;;81.23;30.10;;;;;;;;;;6285887;22;20558;-95
2020/12/11 07:31:40;;;;;;;59.87;26.13;;;;;;;;;;6286721;22;20447;-96
2020/12/11 07:34:11;;;;;;;53.50;25.40;;;;;;;;;;6285779;22;20401;-95
2020/12/11 07:36:38;;;;;;;54.00;23.70;;;;;;;;;;6287762;22;20435;-94
2020/12/11 07:39:11;;;;;;;75.20;29.50;;;;;;;;;;6285376;22;20410;-95
2020/12/11 07:41:40;;;;;;;67.90;25.90;;;;;;;;;;6287233;22;20423;-93
2020/12/11 07:44:06;;;;;;;48.67;23.40;;;;;;;;;;6286440;22;20413;-95
2020/12/11 07:46:33;;;;;;;53.27;24.80;;;;;;;;;;6286975;22;20409;-94
2020/12/11 07:48:59;;;;;;;58.30;24.00;;;;;;;;;;6286874;22;20451;-94
2020/12/11 07:51:25;;;;;;;46.00;21.93;;;;;;;;;;6284875;22;20413;-94
2020/12/11 07:53:52;;;;;;;35.90;19.80;;;;;;;;;;6285355;22;20823;-94
2020/12/11 07:56:18;;;;;;;34.10;16.77;;;;;;;;;;6284292;22;20441;-93
2020/12/11 07:58:44;;;;;;;34.43;18.70;;;;;;;;;;6286509;22;20404;-93
2020/12/11 08:01:14;;;;;;;27.73;15.43;;;;;;;;;;6297272;22;20411;-96
2020/12/11 08:03:41;;;;;;;24.13;13.30;;;;;;;;;;6287838;22;20436;-95
2020/12/11 08:06:10;;;;;;;26.27;15.17;;;;;;;;;;6287431;22;20425;-96
2020/12/11 08:08:37;;;;;;;21.20;13.67;;;;;;;;;;6294904;22;20458;-96
2020/12/11 08:11:04;;;;;;;27.07;14.73;;;;;;;;;;6294355;22;20892;-96
2020/12/11 08:25:31;;;;;;;27.13;15.90;;;;;;;;;;6217828;22;20438;-96
2020/12/11 08:51:06;;;;;;;49.83;28.70;;;;;;;;;;6257407;22;20441;-96
2020/12/11 08:56:36;;;;;;;46.90;29.03;;;;;;;;;;6270147;23;20397;-96
2020/12/11 09:02:09;;;;;;;57.40;29.50;;;;;;;;;;6267049;23;20397;-96
2020/12/11 09:04:35;;;;;;;54.30;28.20;;;;;;;;;;6238921;23;20449;-96
2020/12/11 09:07:06;;;;;;;39.13;25.50;;;;;;;;;;6269057;23;20420;-96
2020/12/11 09:09:32;;;;;;;53.60;29.47;;;;;;;;;;6259718;23;20449;-96
2020/12/11 09:11:59;;;;;;;55.23;28.70;;;;;;;;;;6261465;23;20943;-96
2020/12/11 09:14:25;;;;;;;54.30;28.60;;;;;;;;;;6259913;23;20473;-96
2020/12/11 09:16:51;;;;;;;52.87;29.80;;;;;;;;;;6262043;23;20417;-96
2020/12/11 09:19:17;;;;;;;64.33;32.10;;;;;;;;;;6257392;23;20497;-96
2020/12/11 09:21:43;;;;;;;53.57;30.73;;;;;;;;;;6256452;23;20657;-96
2020/12/11 09:24:16;;;;;;;57.50;31.00;;;;;;;;;;6262287;23;20481;-96
2020/12/11 09:26:46;;;;;;;57.37;31.07;;;;;;;;;;6265986;23;20469;-96
2020/12/11 09:29:25;;;;;;;54.60;30.67;;;;;;;;;;6262708;23;20476;-96
2020/12/11 09:31:53;;;;;;;60.97;33.40;;;;;;;;;;6261206;22;20414;-96
2020/12/11 09:34:20;;;;;;;58.50;31.83;;;;;;;;;;6256618;23;20421;-95
2020/12/11 09:36:46;;;;;;;54.23;31.00;;;;;;;;;;6258575;23;20510;-96
2020/12/11 09:39:21;;;;;;;64.23;32.93;;;;;;;;;;6257097;23;20413;-96
2020/12/11 09:44:57;;;;;;;62.20;34.93;;;;;;;;;;6225884;22;20452;-96
2020/12/11 09:58:57;;;;;;;63.83;35.63;;;;;;;;;;6266440;22;20456;-96
2020/12/11 10:01:45;;;;;;;61.23;32.73;;;;;;;;;;6273623;23;20417;-96
2020/12/11 10:04:30;;;;;;;61.17;34.20;;;;;;;;;;6273434;23;20406;-96
2020/12/11 10:31:10;;;;;;;56.37;32.00;;;;;;;;;;6262331;23;20449;-96
2020/12/11 10:33:38;;;;;;;56.60;30.97;;;;;;;;;;6266447;23;20390;-96
2020/12/11 10:36:05;;;;;;;57.30;29.93;;;;;;;;;;6261785;23;20445;-96
2020/12/11 10:38:34;;;;;;;58.90;31.93;;;;;;;;;;6263767;23;20428;-96
2020/12/11 10:41:01;;;;;;;60.80;32.77;;;;;;;;;;6258830;23;20636;-96
2020/12/11 10:49:49;;;;;;;54.30;33.37;;;;;;;;;;6277028;22;20428;-96
2020/12/11 10:55:54;;;;;;;57.27;31.43;;;;;;;;;;6275459;22;20451;-96
2020/12/11 10:58:21;;;;;;;62.40;32.80;;;;;;;;;;6300376;22;20415;-96
2020/12/11 11:00:48;;;;;;;52.90;32.00;;;;;;;;;;6301273;22;20435;-96
2020/12/11 11:03:17;;;;;;;53.50;31.20;;;;;;;;;;6283610;22;20795;-96
2020/12/11 11:05:45;;;;;;;57.47;30.17;;;;;;;;;;6269836;23;20397;-96
2020/12/11 11:19:12;;;;;;;84.43;50.53;;;;;;;;;;6276627;22;20444;-96
2020/12/11 11:52:48;;;;;;;81.40;50.97;;;;;;;;;;6284981;22;20449;-96
2020/12/11 11:57:46;;;;;;;86.37;53.80;;;;;;;;;;6268460;22;20496;-96
2020/12/11 12:00:28;;;;;;;80.20;49.13;;;;;;;;;;6271841;22;20481;-96
2020/12/11 12:08:39;;;;;;;70.63;43.20;;;;;;;;;;6196687;22;21615;-96
2020/12/11 12:29:58;;;;;;;96.87;56.87;;;;;;;;;;6257123;22;20504;-96
2020/12/11 12:32:34;;;;;;;90.63;50.80;;;;;;;;;;6257763;22;20427;-96
2020/12/11 12:35:01;;;;;;;81.43;46.23;;;;;;;;;;6256757;22;20409;-96
2020/12/11 12:37:36;;;;;;;70.40;43.60;;;;;;;;;;6257938;22;20465;-96
2020/12/11 12:40:37;;;;;;;73.17;42.50;;;;;;;;;;6265671;22;20411;-96
2020/12/11 12:43:14;;;;;;;56.60;35.90;;;;;;;;;;6263904;23;20407;-96
2020/12/11 12:45:59;;;;;;;63.60;39.27;;;;;;;;;;6271240;23;20419;-96
2020/12/11 12:48:25;;;;;;;54.80;34.27;;;;;;;;;;6229409;23;20443;-96
2020/12/11 12:50:57;;;;;;;55.37;33.10;;;;;;;;;;6257415;23;20485;-96
2020/12/11 12:53:28;;;;;;;52.80;32.63;;;;;;;;;;6258365;23;20416;-96
2020/12/11 13:15:05;;;;;;;46.00;27.53;;;;;;;;;;6289480;22;20486;-96
2020/12/11 13:48:59;;;;;;;54.93;34.97;;;;;;;;;;6290969;22;20446;-96
2020/12/11 13:51:26;;;;;;;51.90;35.60;;;;;;;;;;6296446;22;20415;-96
2020/12/11 13:53:52;;;;;;;51.93;32.90;;;;;;;;;;6286096;22;20440;-96
2020/12/11 13:56:18;;;;;;;64.33;39.53;;;;;;;;;;6288369;22;20415;-96
2020/12/11 13:58:44;;;;;;;51.70;34.70;;;;;;;;;;6286577;22;20406;-96
2020/12/11 14:01:11;;;;;;;53.97;36.77;;;;;;;;;;6288117;22;20420;-96
2020/12/11 14:03:37;;;;;;;61.33;36.70;;;;;;;;;;6285922;22;20473;-95
2020/12/11 14:06:04;;;;;;;52.83;32.37;;;;;;;;;;6287225;22;20453;-95
2020/12/11 14:08:30;;;;;;;54.63;35.00;;;;;;;;;;6286609;22;20467;-96
2020/12/11 14:10:58;;;;;;;54.43;37.20;;;;;;;;;;6284616;22;20412;-96
2020/12/11 14:13:24;;;;;;;56.93;37.90;;;;;;;;;;6285993;22;20414;-96
2020/12/11 14:15:50;;;;;;;60.77;38.50;;;;;;;;;;6287838;22;20413;-96
2020/12/11 14:18:24;;;;;;;59.97;36.87;;;;;;;;;;6287232;22;20494;-96
2020/12/11 14:21:01;;;;;;;66.23;37.30;;;;;;;;;;6287699;22;20401;-96
2020/12/11 14:23:29;;;;;;;57.80;35.50;;;;;;;;;;6287972;22;20428;-96
2020/12/11 14:25:55;;;;;;;50.73;31.90;;;;;;;;;;6288479;22;20444;-96
2020/12/11 14:28:31;;;;;;;60.80;35.70;;;;;;;;;;6295332;22;20488;-96
2020/12/11 14:30:57;;;;;;;45.13;29.73;;;;;;;;;;6289480;22;20464;-96
2020/12/11 14:33:23;;;;;;;61.43;38.17;;;;;;;;;;6293626;22;20412;-96
2020/12/11 14:35:50;;;;;;;52.13;34.17;;;;;;;;;;6290528;22;20417;-96
2020/12/11 14:38:31;;;;;;;54.83;34.80;;;;;;;;;;6288965;22;20796;-96
2020/12/11 14:40:58;;;;;;;50.80;32.10;;;;;;;;;;6294273;22;20397;-96
2020/12/11 14:43:31;;;;;;;64.30;38.40;;;;;;;;;;6296362;22;20476;-96
2020/12/11 14:46:00;;;;;;;66.77;43.63;;;;;;;;;;6299975;22;20409;-96
2020/12/11 15:32:58;;;;;;;78.67;44.17;;;;;;;;;;6256538;22;20456;-96
2020/12/11 15:58:55;;;;;;;72.87;38.43;;;;;;;;;;6300302;22;20412;-96
2020/12/11 16:09:07;;;;;;;57.35;35.50;;;;;;;;;;6230839;22;20433;-96
2020/12/11 16:11:34;;;;;;;65.77;38.47;;;;;;;;;;6295567;22;20178;-96
2020/12/11 16:14:01;;;;;;;54.07;33.10;;;;;;;;;;6289394;22;20436;-96
2020/12/11 16:16:27;;;;;;;40.83;25.00;;;;;;;;;;6289381;22;20419;-93
2020/12/11 16:18:54;;;;;;;42.23;27.67;;;;;;;;;;6287797;22;20188;-95
2020/12/11 16:21:45;;;;;;;;;;;;;;;;;;;;;
2020/12/11 16:29:39;;;;;;;52.95;34.05;;;;;;;;;;6220679;22;20242;-96
2020/12/11 17:13:27;;;;;;;109.95;68.20;;;;;;;;;;6233226;22;20237;-94
2020/12/11 17:16:32;;;;;;;150.60;88.70;;;;;;;;;;6236747;23;20178;-96
2020/12/11 17:18:58;;;;;;;128.73;74.78;;;;;;;;;;6207944;23;20184;-94
2020/12/11 17:24:16;;;;;;;179.05;98.38;;;;;;;;;;6201307;23;20171;-93
2020/12/11 17:26:42;;;;;;;241.48;103.38;;;;;;;;;;6228556;23;20205;-94
2020/12/11 17:29:11;;;;;;;121.55;71.75;;;;;;;;;;6224250;23;20260;-91
2020/12/11 17:31:43;;;;;;;150.52;85.85;;;;;;;;;;6222758;23;20224;-94
2020/12/11 17:34:20;;;;;;;110.68;66.10;;;;;;;;;;6222660;23;20252;-93
2020/12/11 17:36:46;;;;;;;114.22;69.10;;;;;;;;;;6224453;23;20180;-93
2020/12/11 17:39:15;;;;;;;69.10;46.30;;;;;;;;;;6222871;23;20209;-93
2020/12/11 17:41:46;;;;;;;68.68;44.42;;;;;;;;;;6224075;23;20186;-93
2020/12/11 17:44:14;;;;;;;80.75;48.60;;;;;;;;;;6222409;23;20179;-93
2020/12/11 17:46:40;;;;;;;77.50;48.35;;;;;;;;;;6225311;23;20210;-91
2020/12/11 17:49:07;;;;;;;81.88;53.55;;;;;;;;;;6223741;23;20197;-92
2020/12/11 17:51:33;;;;;;;104.72;62.55;;;;;;;;;;6224853;23;20754;-96
2020/12/11 17:53:59;;;;;;;111.13;67.82;;;;;;;;;;6223795;23;20183;-96
2020/12/11 17:56:25;;;;;;;93.40;59.20;;;;;;;;;;6226998;23;20177;-96
2020/12/11 17:58:51;;;;;;;103.85;59.08;;;;;;;;;;6224678;23;20199;-94
2020/12/11 18:01:18;;;;;;;84.63;52.90;;;;;;;;;;6220955;23;20186;-94
2020/12/11 18:03:44;;;;;;;77.03;50.30;;;;;;;;;;6220584;23;20410;-93
2020/12/11 18:06:10;;;;;;;88.65;54.65;;;;;;;;;;6220041;23;20181;-94
2020/12/11 18:08:36;;;;;;;79.10;48.00;;;;;;;;;;6220852;23;20208;-94
2020/12/11 18:11:02;;;;;;;121.07;66.63;;;;;;;;;;6222403;23;20408;-93
2020/12/11 18:13:31;;;;;;;127.43;69.00;;;;;;;;;;6232786;23;20257;-96
2020/12/11 18:15:59;;;;;;;124.57;67.72;;;;;;;;;;6234171;23;20437;-96
2020/12/11 18:18:26;;;;;;;165.27;84.72;;;;;;;;;;6233340;23;20190;-94
2020/12/11 18:20:52;;;;;;;164.70;73.18;;;;;;;;;;6226109;23;20180;-94
2020/12/11 18:23:19;;;;;;;159.85;77.68;;;;;;;;;;6221417;23;20186;-94
2020/12/11 18:25:46;;;;;;;113.07;59.65;;;;;;;;;;6223125;23;20270;-95
2020/12/11 18:28:16;;;;;;;124.88;63.40;;;;;;;;;;6224427;23;20175;-95
2020/12/11 18:30:50;;;;;;;127.13;63.92;;;;;;;;;;6228748;23;20230;-94
2020/12/11 18:33:16;;;;;;;123.53;66.80;;;;;;;;;;6223341;23;20179;-94
2020/12/11 18:35:43;;;;;;;157.68;76.95;;;;;;;;;;6226847;23;20633;-93
2020/12/11 18:38:10;;;;;;;167.60;85.40;;;;;;;;;;6225082;23;20186;-93
2020/12/11 18:40:36;;;;;;;186.88;87.03;;;;;;;;;;6225998;23;20184;-94
2020/12/11 18:43:02;;;;;;;179.77;89.55;;;;;;;;;;6224897;23;20182;-94
2020/12/11 18:45:29;;;;;;;177.85;89.72;;;;;;;;;;6225030;23;20182;-93
2020/12/11 18:47:57;;;;;;;161.48;77.95;;;;;;;;;;6225171;23;20177;-94
2020/12/11 18:50:23;;;;;;;153.27;71.97;;;;;;;;;;6222456;23;20210;-94
2020/12/11 18:52:50;;;;;;;113.53;64.45;;;;;;;;;;6222791;23;20188;-95
2020/12/11 18:55:20;;;;;;;129.15;66.47;;;;;;;;;;6223144;23;20184;-94
2020/12/11 18:57:47;;;;;;;120.63;67.07;;;;;;;;;;6225891;23;20181;-93
2020/12/11 19:00:13;;;;;;;124.57;63.17;;;;;;;;;;6225105;23;20180;-95
2020/12/11 19:02:41;;;;;;;117.82;59.75;;;;;;;;;;6225867;23;20592;-96
2020/12/11 19:05:07;;;;;;;110.85;57.88;;;;;;;;;;6224700;23;20181;-95
2020/12/11 19:07:33;;;;;;;127.75;64.10;;;;;;;;;;6225985;23;20206;-96
2020/12/11 19:10:00;;;;;;;98.38;57.65;;;;;;;;;;6227493;23;20224;-95
2020/12/11 19:12:26;;;;;;;114.28;60.95;;;;;;;;;;6233309;23;20171;-94
2020/12/11 19:14:52;;;;;;;93.43;53.40;;;;;;;;;;6231941;23;20211;-94
2020/12/11 19:17:18;;;;;;;103.90;54.42;;;;;;;;;;6222180;23;20413;-95
2020/12/11 19:19:45;;;;;;;89.35;52.70;;;;;;;;;;6222788;23;20184;-94
2020/12/11 19:22:11;;;;;;;93.35;51.50;;;;;;;;;;6222375;23;20192;-94
2020/12/11 19:24:37;;;;;;;101.45;56.88;;;;;;;;;;6225120;23;20180;-94
2020/12/11 19:27:04;;;;;;;95.50;55.70;;;;;;;;;;6225076;23;20182;-94
2020/12/11 19:29:30;;;;;;;94.80;56.47;;;;;;;;;;6224935;23;20200;-94
2020/12/11 19:31:56;;;;;;;108.60;60.60;;;;;;;;;;6225373;23;20414;-95
2020/12/11 19:34:23;;;;;;;104.75;54.05;;;;;;;;;;6224576;23;20178;-94
2020/12/11 19:36:49;;;;;;;100.55;59.53;;;;;;;;;;6224935;23;20210;-95
2020/12/11 19:39:15;;;;;;;103.88;57.75;;;;;;;;;;6223433;23;20182;-96
2020/12/11 19:41:42;;;;;;;114.32;63.60;;;;;;;;;;6223414;23;20176;-95
2020/12/11 19:44:09;;;;;;;127.27;73.30;;;;;;;;;;6225471;23;20180;-96
2020/12/11 19:46:35;;;;;;;125.53;71.13;;;;;;;;;;6225500;23;20417;-95
2020/12/11 19:49:07;;;;;;;117.10;65.80;;;;;;;;;;6225770;23;20476;-95
2020/12/11 19:51:37;;;;;;;81.13;50.77;;;;;;;;;;6223430;23;20481;-96
2020/12/11 19:54:12;;;;;;;84.00;50.15;;;;;;;;;;6224226;23;20436;-94
2020/12/11 19:56:42;;;;;;;101.00;56.00;;;;;;;;;;6223720;23;20238;-94
2020/12/11 19:59:14;;;;;;;86.40;52.45;;;;;;;;;;6226286;23;20417;-95
2020/12/11 20:02:09;;;;;;;;;;;;;;;;;;;;;